Time;durP1;ratioP1;P1;durP2;ratioP2;P2;SDS_P1;SDS_P2;PMS_P1;PMS_P2;Temp;Humidity;BMP_temperature;BMP_pressure;BME280_temperature;BME280_humidity;BME280_pressure;Samples;Min_cycle;Max_cycle;Signal;HPM_P1;HPM_P2
2022/04/10 00:01:01;;;;;;;0.50;0.50;;;16.40;56.30;;;;;;4976127;28;20541;-12
2022/04/10 00:03:27;;;;;;;0.40;0.40;;;16.40;56.40;;;;;;4976511;28;20047;-13
2022/04/10 00:05:53;;;;;;;0.50;0.43;;;16.30;56.50;;;;;;4993117;28;20599;-13
2022/04/10 00:08:19;;;;;;;0.50;0.50;;;16.40;56.50;;;;;;4995377;28;20486;-13
2022/04/10 00:10:44;;;;;;;0.68;0.68;;;16.40;56.40;;;;;;4995620;28;20055;-13
2022/04/10 00:13:11;;;;;;;0.40;0.40;;;16.40;56.30;;;;;;4994642;28;20074;-13
2022/04/10 00:15:36;;;;;;;0.40;0.40;;;16.40;56.50;;;;;;4995919;28;20057;-13
2022/04/10 00:18:02;;;;;;;1.35;0.50;;;16.40;56.50;;;;;;4995358;28;20043;-12
2022/04/10 00:20:28;;;;;;;0.50;0.50;;;16.30;56.50;;;;;;4995298;28;20042;-13
2022/04/10 00:22:54;;;;;;;0.55;0.40;;;16.30;56.50;;;;;;4995687;28;20613;-12
2022/04/10 00:25:20;;;;;;;1.20;0.70;;;16.40;56.60;;;;;;4995456;28;20054;-12
2022/04/10 00:27:45;;;;;;;0.40;0.40;;;16.40;56.50;;;;;;4995055;28;20061;-13
2022/04/10 00:30:12;;;;;;;0.60;0.60;;;16.30;56.50;;;;;;4994892;28;20050;-12
2022/04/10 00:32:38;;;;;;;0.50;0.50;;;16.40;56.50;;;;;;4995617;28;20054;-12
2022/04/10 00:35:08;;;;;;;0.70;0.70;;;16.40;56.40;;;;;;4994967;28;20046;-12
2022/04/10 00:37:34;;;;;;;0.50;0.50;;;16.30;56.50;;;;;;4989799;28;20098;-13
2022/04/10 00:39:59;;;;;;;1.05;0.50;;;16.30;56.60;;;;;;4975864;28;20049;-12
2022/04/10 00:42:32;;;;;;;0.60;0.60;;;16.30;56.50;;;;;;4976284;28;20130;-13
2022/04/10 00:44:58;;;;;;;0.57;0.57;;;16.40;56.50;;;;;;4976030;28;20047;-13
2022/04/10 00:47:23;;;;;;;0.40;0.40;;;16.40;56.50;;;;;;4976380;28;20043;-13
2022/04/10 00:49:49;;;;;;;0.77;0.77;;;16.30;56.60;;;;;;4988571;28;20038;-13
2022/04/10 00:52:15;;;;;;;1.02;0.40;;;16.30;56.70;;;;;;4993636;28;20380;-13
2022/04/10 00:54:40;;;;;;;1.02;0.77;;;16.30;56.80;;;;;;4980701;28;20133;-12
2022/04/10 00:57:06;;;;;;;0.85;0.70;;;16.30;56.80;;;;;;4980773;28;20038;-12
2022/04/10 00:59:31;;;;;;;0.60;0.60;;;16.30;56.80;;;;;;4995601;28;20051;-12
2022/04/10 01:01:57;;;;;;;0.57;0.57;;;16.30;56.70;;;;;;4995310;28;20053;-13
2022/04/10 01:04:23;;;;;;;0.40;0.40;;;16.30;56.70;;;;;;4993001;28;20097;-12
2022/04/10 01:06:50;;;;;;;0.70;0.70;;;16.30;56.70;;;;;;4995283;28;20088;-13
2022/04/10 01:09:16;;;;;;;0.50;0.50;;;16.30;56.60;;;;;;4995053;28;20468;-13
2022/04/10 01:11:42;;;;;;;0.50;0.50;;;16.30;56.80;;;;;;4995228;28;20121;-12
2022/04/10 01:14:12;;;;;;;0.60;0.60;;;16.30;56.80;;;;;;4994277;28;20055;-12
2022/04/10 01:16:38;;;;;;;0.60;0.60;;;16.30;56.90;;;;;;4995510;28;20484;-13
2022/04/10 01:19:04;;;;;;;0.50;0.50;;;16.20;56.90;;;;;;4994860;28;20050;-13
2022/04/10 01:21:32;;;;;;;0.50;0.50;;;16.20;56.90;;;;;;4991684;28;20039;-12
2022/04/10 01:23:58;;;;;;;0.40;0.40;;;16.20;56.90;;;;;;4975752;28;20130;-14
2022/04/10 01:26:24;;;;;;;0.50;0.50;;;16.30;56.90;;;;;;4973780;28;20118;-13
2022/04/10 01:29:01;;;;;;;0.43;0.43;;;16.30;56.90;;;;;;4990226;28;20062;-12
2022/04/10 01:31:28;;;;;;;0.57;0.57;;;16.20;56.90;;;;;;4990202;28;20054;-12
2022/04/10 01:33:55;;;;;;;0.40;0.40;;;16.20;56.90;;;;;;4997373;28;20046;-12
2022/04/10 01:36:22;;;;;;;0.45;0.45;;;16.20;56.90;;;;;;4992502;28;20153;-13
2022/04/10 01:38:48;;;;;;;0.47;0.47;;;16.20;56.90;;;;;;4977635;28;20046;-13
2022/04/10 01:41:14;;;;;;;0.68;0.60;;;16.20;56.90;;;;;;4980653;28;20050;-13
2022/04/10 01:43:46;;;;;;;0.50;0.50;;;16.30;57.00;;;;;;4998643;28;20046;-14
2022/04/10 01:46:12;;;;;;;0.50;0.50;;;16.20;57.00;;;;;;4997286;28;20092;-13
2022/04/10 01:48:38;;;;;;;0.43;0.43;;;16.20;57.10;;;;;;4998364;28;20038;-13
2022/04/10 01:51:04;;;;;;;0.32;0.32;;;16.20;57.00;;;;;;4997113;28;20042;-12
2022/04/10 01:53:30;;;;;;;0.50;0.50;;;16.20;57.00;;;;;;4998313;28;20078;-12
2022/04/10 01:55:55;;;;;;;0.70;0.60;;;16.20;57.00;;;;;;4998169;28;20046;-12
2022/04/10 01:58:21;;;;;;;0.57;0.52;;;16.20;57.00;;;;;;4997779;28;20050;-13
2022/04/10 02:00:47;;;;;;;0.60;0.60;;;16.20;57.00;;;;;;4992275;28;20055;-13
2022/04/10 02:03:12;;;;;;;0.77;0.65;;;16.20;57.00;;;;;;4978188;28;20496;-13
2022/04/10 02:05:38;;;;;;;0.50;0.50;;;16.20;57.00;;;;;;4979172;28;20051;-12
2022/04/10 02:08:03;;;;;;;0.50;0.50;;;16.20;56.90;;;;;;4978054;28;20043;-13
2022/04/10 02:10:29;;;;;;;0.50;0.50;;;16.20;57.10;;;;;;4978388;28;20063;-12
2022/04/10 02:12:55;;;;;;;0.50;0.50;;;16.20;57.10;;;;;;4983590;28;20046;-12
2022/04/10 02:15:20;;;;;;;0.50;0.50;;;16.10;57.10;;;;;;4997567;28;20121;-13
2022/04/10 02:17:46;;;;;;;0.63;0.63;;;16.10;57.20;;;;;;4998102;28;20500;-13
2022/04/10 02:20:11;;;;;;;0.50;0.50;;;16.10;57.10;;;;;;4995801;28;20040;-13
2022/04/10 02:22:37;;;;;;;1.95;0.50;;;16.10;57.10;;;;;;4978276;28;20043;-13
2022/04/10 02:25:03;;;;;;;0.50;0.50;;;16.10;57.00;;;;;;4977805;28;20073;-13
2022/04/10 02:27:28;;;;;;;0.32;0.32;;;16.10;57.00;;;;;;4980460;28;20050;-12
2022/04/10 02:29:54;;;;;;;0.45;0.45;;;16.20;57.10;;;;;;4997570;28;20047;-13
2022/04/10 02:32:20;;;;;;;0.40;0.40;;;16.10;57.00;;;;;;4997138;28;20121;-13
2022/04/10 02:34:45;;;;;;;0.40;0.40;;;16.20;57.00;;;;;;4992604;28;20109;-13
2022/04/10 02:37:11;;;;;;;0.45;0.45;;;16.20;57.10;;;;;;4990114;28;20042;-12
2022/04/10 02:39:36;;;;;;;0.40;0.40;;;16.10;57.10;;;;;;4995434;28;20054;-12
2022/04/10 02:42:02;;;;;;;0.40;0.40;;;16.10;57.10;;;;;;4996678;28;20052;-15
2022/04/10 02:44:28;;;;;;;0.50;0.50;;;16.10;57.20;;;;;;4997145;28;20076;-13
2022/04/10 02:46:53;;;;;;;0.47;0.47;;;16.10;57.10;;;;;;4997549;28;20487;-12
2022/04/10 02:49:19;;;;;;;0.70;0.60;;;16.10;57.20;;;;;;4993964;28;20045;-13
2022/04/10 02:51:47;;;;;;;0.43;0.43;;;16.10;57.10;;;;;;4997205;28;20096;-12
2022/04/10 02:54:13;;;;;;;0.50;0.40;;;16.10;57.30;;;;;;4996650;28;20093;-13
2022/04/10 02:56:39;;;;;;;0.75;0.35;;;16.10;57.20;;;;;;4997051;28;20045;-13
2022/04/10 02:59:04;;;;;;;0.50;0.50;;;16.00;57.20;;;;;;4995968;28;20561;-15
2022/04/10 03:01:30;;;;;;;0.50;0.50;;;16.00;57.20;;;;;;4996927;28;20057;-12
2022/04/10 03:03:55;;;;;;;0.47;0.47;;;16.00;57.20;;;;;;4997176;28;20038;-12
2022/04/10 03:06:21;;;;;;;0.55;0.55;;;16.00;57.20;;;;;;4996423;28;20534;-12
2022/04/10 03:08:47;;;;;;;0.50;0.50;;;16.10;57.20;;;;;;4996396;28;20050;-13
2022/04/10 03:11:12;;;;;;;0.50;0.50;;;16.00;57.20;;;;;;4995602;28;20049;-12
2022/04/10 03:13:38;;;;;;;0.52;0.52;;;16.00;57.20;;;;;;4996839;28;20046;-12
2022/04/10 03:16:04;;;;;;;0.60;0.60;;;16.00;57.20;;;;;;4996769;28;20124;-12
2022/04/10 03:18:29;;;;;;;0.60;0.60;;;16.00;57.20;;;;;;4995651;28;20073;-12
2022/04/10 03:20:55;;;;;;;1.08;0.55;;;16.00;57.30;;;;;;4996911;28;20092;-13
2022/04/10 03:23:21;;;;;;;0.40;0.40;;;16.00;57.30;;;;;;4995958;28;20062;-13
2022/04/10 03:25:46;;;;;;;0.50;0.40;;;16.00;57.30;;;;;;4996477;28;20041;-12
2022/04/10 03:28:12;;;;;;;0.30;0.30;;;16.00;57.20;;;;;;4995469;28;20124;-13
2022/04/10 03:30:37;;;;;;;0.82;0.50;;;16.10;57.30;;;;;;4996401;28;20081;-13
2022/04/10 03:33:03;;;;;;;0.50;0.50;;;16.00;57.20;;;;;;4995921;28;20042;-13
2022/04/10 03:35:29;;;;;;;0.40;0.40;;;16.10;57.30;;;;;;4995861;28;20054;-12
2022/04/10 03:37:54;;;;;;;0.38;0.38;;;16.00;57.20;;;;;;4996440;28;20061;-13
2022/04/10 03:40:20;;;;;;;0.50;0.50;;;16.00;57.30;;;;;;4995028;28;20644;-12
2022/04/10 03:42:46;;;;;;;0.60;0.60;;;16.00;57.40;;;;;;4996206;28;20042;-12
2022/04/10 03:45:12;;;;;;;0.60;0.60;;;16.00;57.30;;;;;;4995770;28;20038;-13
2022/04/10 03:47:37;;;;;;;0.68;0.60;;;16.00;57.30;;;;;;4996158;28;20073;-12
2022/04/10 03:50:04;;;;;;;0.50;0.50;;;16.00;57.30;;;;;;4995218;28;20042;-13
2022/04/10 03:52:30;;;;;;;0.60;0.60;;;16.00;57.40;;;;;;4995475;28;20068;-12
2022/04/10 03:54:55;;;;;;;0.40;0.40;;;16.00;57.30;;;;;;4993889;28;20138;-13
2022/04/10 03:57:21;;;;;;;0.40;0.40;;;16.00;57.30;;;;;;4976031;28;20555;-13
2022/04/10 03:59:46;;;;;;;0.32;0.32;;;16.00;57.20;;;;;;4980902;28;20077;-13
2022/04/10 04:02:16;;;;;;;0.43;0.40;;;16.00;57.20;;;;;;4995441;28;20050;-13
2022/04/10 04:04:42;;;;;;;0.60;0.50;;;16.00;57.20;;;;;;4995465;28;20097;-12
2022/04/10 04:07:07;;;;;;;0.50;0.50;;;16.00;57.30;;;;;;4995966;28;20042;-13
2022/04/10 04:09:33;;;;;;;0.50;0.50;;;16.00;57.40;;;;;;4994779;28;20053;-12
2022/04/10 04:11:58;;;;;;;0.43;0.43;;;15.90;57.30;;;;;;4995243;28;20054;-12
2022/04/10 04:14:24;;;;;;;0.40;0.40;;;15.90;57.50;;;;;;4995460;28;20042;-13
2022/04/10 04:16:50;;;;;;;0.80;0.80;;;15.90;57.40;;;;;;4995280;28;20042;-12
2022/04/10 04:19:15;;;;;;;0.57;0.57;;;16.00;57.40;;;;;;4995229;28;20035;-12
2022/04/10 04:21:41;;;;;;;0.50;0.50;;;16.00;57.20;;;;;;4995910;28;20053;-12
2022/04/10 04:24:06;;;;;;;0.35;0.35;;;16.00;57.20;;;;;;4995074;28;20038;-12
2022/04/10 04:26:32;;;;;;;0.50;0.50;;;16.00;57.30;;;;;;4995022;28;20046;-12
2022/04/10 04:28:58;;;;;;;0.40;0.40;;;15.90;57.40;;;;;;4995864;28;20096;-12
2022/04/10 04:31:23;;;;;;;0.70;0.70;;;16.00;57.30;;;;;;4994173;28;20070;-12
2022/04/10 04:33:49;;;;;;;0.60;0.60;;;15.90;57.30;;;;;;4995865;28;20054;-12
2022/04/10 04:36:14;;;;;;;0.50;0.50;;;15.90;57.50;;;;;;4995277;28;20042;-12
2022/04/10 04:38:40;;;;;;;0.50;0.50;;;15.90;57.40;;;;;;4992572;28;20042;-13
2022/04/10 04:41:08;;;;;;;0.30;0.30;;;15.90;57.40;;;;;;4995439;28;20523;-12
2022/04/10 04:43:33;;;;;;;0.52;0.50;;;15.90;57.40;;;;;;4995188;28;20042;-13
2022/04/10 04:45:59;;;;;;;0.47;0.47;;;15.90;57.40;;;;;;4995101;28;20689;-13
2022/04/10 04:48:24;;;;;;;0.50;0.40;;;15.90;57.50;;;;;;4992577;28;20050;-13
2022/04/10 04:50:50;;;;;;;0.30;0.30;;;15.90;57.50;;;;;;4985673;28;20046;-12
2022/04/10 04:53:15;;;;;;;0.50;0.50;;;15.90;57.50;;;;;;4985246;28;20046;-12
2022/04/10 04:55:41;;;;;;;0.43;0.43;;;15.90;57.50;;;;;;4984933;28;20046;-12
2022/04/10 04:58:07;;;;;;;0.40;0.40;;;15.90;57.40;;;;;;4984095;28;20061;-14
2022/04/10 05:00:33;;;;;;;0.65;0.65;;;15.90;57.50;;;;;;4986524;28;20116;-13
2022/04/10 05:02:58;;;;;;;1.10;0.65;;;15.90;57.50;;;;;;4984173;28;20031;-13
2022/04/10 05:05:25;;;;;;;0.50;0.50;;;15.90;57.50;;;;;;4989164;28;20046;-14
2022/04/10 05:07:50;;;;;;;0.50;0.50;;;15.90;57.50;;;;;;4987233;28;20031;-13
2022/04/10 05:10:16;;;;;;;0.60;0.60;;;15.90;57.50;;;;;;4990594;28;20042;-14
2022/04/10 05:12:42;;;;;;;0.40;0.40;;;15.80;57.50;;;;;;4988263;28;20110;-15
2022/04/10 05:15:08;;;;;;;1.05;0.30;;;15.90;57.50;;;;;;4987627;28;20068;-14
2022/04/10 05:17:34;;;;;;;0.50;0.50;;;15.80;57.40;;;;;;4986990;28;20070;-15
2022/04/10 05:20:00;;;;;;;0.52;0.40;;;15.90;57.50;;;;;;4988348;28;20118;-15
2022/04/10 05:22:26;;;;;;;0.30;0.30;;;15.90;57.40;;;;;;4989966;28;20541;-15
2022/04/10 05:24:52;;;;;;;0.57;0.57;;;15.80;57.50;;;;;;4986873;28;20535;-14
2022/04/10 05:27:18;;;;;;;0.50;0.50;;;15.80;57.40;;;;;;4988281;28;20561;-15
2022/04/10 05:29:43;;;;;;;0.32;0.32;;;15.90;57.40;;;;;;4998642;28;20499;-15
2022/04/10 05:32:10;;;;;;;0.40;0.40;;;15.90;57.40;;;;;;4993064;28;20519;-14
2022/04/10 05:34:35;;;;;;;0.30;0.30;;;15.80;57.40;;;;;;4998246;28;20034;-14
2022/04/10 05:37:01;;;;;;;0.40;0.40;;;15.90;57.50;;;;;;4998555;28;20038;-14
2022/04/10 05:39:27;;;;;;;0.47;0.47;;;15.80;57.40;;;;;;4647763;28;9999822;-14
2022/04/10 05:41:52;;;;;;;0.30;0.30;;;15.80;57.60;;;;;;4994122;28;20038;-12
2022/04/10 05:44:18;;;;;;;0.40;0.40;;;15.80;57.70;;;;;;5001538;28;20531;-13
2022/04/10 05:46:43;;;;;;;0.77;0.43;;;15.80;57.80;;;;;;4996812;28;20046;-13
2022/04/10 05:49:09;;;;;;;0.40;0.40;;;15.80;57.70;;;;;;4994575;28;20051;-14
2022/04/10 05:51:35;;;;;;;0.20;0.20;;;15.80;57.80;;;;;;4997425;28;20046;-13
2022/04/10 05:54:00;;;;;;;0.47;0.30;;;15.80;57.60;;;;;;4988470;28;20050;-14
2022/04/10 05:56:26;;;;;;;0.28;0.28;;;15.80;57.60;;;;;;4992012;28;20054;-13
2022/04/10 05:58:52;;;;;;;1.58;0.40;;;15.80;57.50;;;;;;4992019;28;20182;-13
2022/04/10 06:01:17;;;;;;;3.03;0.65;;;15.80;57.40;;;;;;4996651;28;20054;-13
2022/04/10 06:03:43;;;;;;;0.60;0.60;;;15.80;57.70;;;;;;4993074;28;20050;-13
2022/04/10 06:06:08;;;;;;;0.80;0.50;;;15.80;57.60;;;;;;4984450;28;20049;-15
2022/04/10 06:08:34;;;;;;;1.02;0.60;;;15.80;57.70;;;;;;4980952;28;20304;-16
2022/04/10 06:11:00;;;;;;;1.05;0.40;;;15.80;57.70;;;;;;4980770;28;20054;-16
2022/04/10 06:13:25;;;;;;;0.85;0.50;;;15.80;57.80;;;;;;4979825;28;20050;-17
2022/04/10 06:15:51;;;;;;;1.38;0.68;;;15.70;57.80;;;;;;4982444;28;20446;-16
2022/04/10 06:18:16;;;;;;;0.60;0.60;;;15.70;57.90;;;;;;4981722;28;20058;-16
2022/04/10 06:20:42;;;;;;;0.85;0.50;;;15.70;57.80;;;;;;4981471;28;20073;-17
2022/04/10 06:23:08;;;;;;;0.57;0.50;;;15.70;57.90;;;;;;4982306;28;20062;-16
2022/04/10 06:25:33;;;;;;;0.75;0.60;;;15.70;58.00;;;;;;4979515;28;20053;-17
2022/04/10 06:27:59;;;;;;;0.50;0.50;;;15.80;57.90;;;;;;4980737;28;20050;-16
2022/04/10 06:30:25;;;;;;;0.50;0.50;;;15.80;58.00;;;;;;4980935;28;20606;-14
2022/04/10 06:32:51;;;;;;;0.73;0.60;;;15.80;58.00;;;;;;4982127;28;20483;-14
2022/04/10 06:35:16;;;;;;;0.65;0.50;;;15.80;57.80;;;;;;4980323;28;20050;-14
2022/04/10 06:37:43;;;;;;;0.70;0.52;;;15.80;57.90;;;;;;4979764;28;20625;-15
2022/04/10 06:40:08;;;;;;;0.50;0.47;;;15.80;57.80;;;;;;4981835;28;21108;-15
2022/04/10 06:42:34;;;;;;;0.73;0.52;;;15.80;57.80;;;;;;4981317;28;20833;-14
2022/04/10 06:45:00;;;;;;;0.55;0.55;;;15.90;57.60;;;;;;4979963;28;20625;-15
2022/04/10 06:47:27;;;;;;;0.40;0.40;;;15.90;57.70;;;;;;4979933;28;20534;-14
2022/04/10 06:49:54;;;;;;;0.28;0.28;;;15.80;57.60;;;;;;4981313;28;20409;-14
2022/04/10 06:52:19;;;;;;;0.63;0.63;;;15.90;57.60;;;;;;4979919;28;20054;-16
2022/04/10 06:54:45;;;;;;;0.45;0.45;;;15.90;57.60;;;;;;4980337;28;20042;-14
2022/04/10 06:57:10;;;;;;;0.75;0.60;;;15.90;57.50;;;;;;4981015;28;20530;-14
2022/04/10 06:59:36;;;;;;;0.50;0.40;;;15.90;57.50;;;;;;4980191;28;20073;-15
2022/04/10 07:02:02;;;;;;;0.75;0.60;;;15.90;57.60;;;;;;4981497;28;20108;-13
2022/04/10 07:04:27;;;;;;;0.40;0.40;;;15.90;57.60;;;;;;4979901;28;20050;-15
2022/04/10 07:06:53;;;;;;;1.17;0.60;;;15.90;57.50;;;;;;4979528;28;20081;-14
2022/04/10 07:09:19;;;;;;;0.47;0.47;;;15.90;57.40;;;;;;4981755;28;20046;-14
2022/04/10 07:11:45;;;;;;;0.77;0.47;;;15.90;57.50;;;;;;4980550;28;20085;-14
2022/04/10 07:14:11;;;;;;;0.50;0.50;;;15.80;57.40;;;;;;4979823;28;20070;-14
2022/04/10 07:16:36;;;;;;;0.40;0.40;;;15.90;57.50;;;;;;4980872;28;20050;-14
2022/04/10 07:19:02;;;;;;;0.52;0.40;;;15.90;57.30;;;;;;4980343;28;20731;-14
2022/04/10 07:24:12;;;;;;;1.20;0.52;;;16.00;57.10;;;;;;4979527;28;20491;-14
2022/04/10 07:26:37;;;;;;;0.30;0.30;;;16.10;57.10;;;;;;4978273;28;20925;-14
2022/04/10 07:29:03;;;;;;;0.30;0.30;;;16.20;56.80;;;;;;4980802;28;20431;-15
2022/04/10 07:31:29;;;;;;;0.50;0.50;;;16.20;56.60;;;;;;4979176;28;20093;-14
2022/04/10 07:33:54;;;;;;;0.50;0.50;;;16.40;56.20;;;;;;4978515;28;20054;-15
2022/04/10 07:36:20;;;;;;;0.40;0.40;;;16.40;56.10;;;;;;4980336;28;20145;-15
2022/04/10 07:38:46;;;;;;;0.43;0.43;;;16.40;55.80;;;;;;4979551;28;20290;-14
2022/04/10 07:41:11;;;;;;;0.70;0.70;;;16.50;55.80;;;;;;4979275;28;20072;-14
2022/04/10 07:43:37;;;;;;;0.57;0.50;;;16.90;55.00;;;;;;4978864;28;20061;-14
2022/04/10 07:48:47;;;;;;;1.35;0.50;;;17.10;54.00;;;;;;4979319;28;20704;-14
2022/04/10 07:51:12;;;;;;;0.40;0.40;;;17.20;53.80;;;;;;4979282;28;20463;-15
2022/04/10 07:53:38;;;;;;;0.88;0.80;;;17.20;53.70;;;;;;4977065;28;20085;-14
2022/04/10 07:56:04;;;;;;;0.40;0.40;;;17.40;53.90;;;;;;4632943;28;10000305;-15
2022/04/10 07:58:29;;;;;;;0.50;0.50;;;17.60;53.30;;;;;;4975817;28;20057;-14
2022/04/10 08:00:55;;;;;;;0.30;0.30;;;17.30;53.60;;;;;;4977502;28;20057;-15
2022/04/10 08:03:21;;;;;;;1.30;0.50;;;16.90;54.30;;;;;;4976283;28;20050;-16
2022/04/10 08:05:46;;;;;;;0.45;0.45;;;16.50;55.20;;;;;;4973780;28;20746;-15
2022/04/10 08:08:12;;;;;;;0.40;0.40;;;16.40;55.60;;;;;;4975874;28;20648;-14
2022/04/10 08:10:39;;;;;;;0.40;0.40;;;16.30;55.80;;;;;;4976749;28;20300;-15
2022/04/10 08:13:04;;;;;;;0.30;0.30;;;16.20;56.00;;;;;;4976953;28;20598;-14
2022/04/10 08:15:30;;;;;;;0.50;0.50;;;16.20;56.20;;;;;;4973634;28;20618;-14
2022/04/10 08:17:56;;;;;;;0.65;0.60;;;16.30;56.20;;;;;;4974643;28;20061;-15
2022/04/10 08:20:22;;;;;;;1.55;0.50;;;16.30;56.20;;;;;;4974274;28;20145;-14
2022/04/10 08:22:49;;;;;;;0.60;0.60;;;16.30;56.20;;;;;;4976542;28;20050;-14
2022/04/10 08:25:16;;;;;;;0.40;0.40;;;16.30;56.10;;;;;;4975392;28;20423;-14
2022/04/10 08:27:42;;;;;;;0.55;0.55;;;16.40;56.10;;;;;;4976642;28;20042;-14
2022/04/10 08:30:09;;;;;;;0.70;0.60;;;16.40;55.90;;;;;;4977606;28;20097;-14
2022/04/10 08:32:38;;;;;;;0.50;0.50;;;16.40;55.80;;;;;;4974983;28;20050;-15
2022/04/10 08:35:05;;;;;;;0.65;0.40;;;16.40;55.90;;;;;;4975754;28;20196;-14
2022/04/10 08:37:30;;;;;;;0.40;0.40;;;16.40;56.00;;;;;;4978886;28;20050;-14
2022/04/10 08:39:56;;;;;;;0.40;0.40;;;16.40;55.90;;;;;;4981394;28;20539;-15
2022/04/10 08:42:21;;;;;;;0.40;0.40;;;16.50;55.80;;;;;;4980980;28;20133;-15
2022/04/10 08:44:47;;;;;;;0.63;0.30;;;16.60;55.90;;;;;;4979471;28;20133;-15
2022/04/10 08:47:15;;;;;;;0.40;0.40;;;16.60;55.70;;;;;;4980479;28;20050;-14
2022/04/10 08:49:41;;;;;;;0.20;0.20;;;16.60;55.60;;;;;;4978749;28;20141;-15
2022/04/10 08:52:06;;;;;;;0.40;0.40;;;16.70;55.60;;;;;;4980253;28;20052;-14
2022/04/10 08:54:32;;;;;;;0.40;0.40;;;16.70;55.50;;;;;;4977746;28;20522;-15
2022/04/10 08:56:57;;;;;;;0.90;0.30;;;16.80;55.50;;;;;;4978347;28;20046;-14
2022/04/10 08:59:23;;;;;;;0.47;0.47;;;16.80;55.50;;;;;;4981170;28;20047;-15
2022/04/10 09:01:53;;;;;;;0.65;0.40;;;16.80;55.60;;;;;;4979981;28;20057;-14
2022/04/10 09:04:20;;;;;;;0.35;0.35;;;16.80;55.40;;;;;;4980756;28;20431;-15
2022/04/10 09:07:15;;;;;;;1.08;0.40;;;16.90;55.60;;;;;;4990410;28;20042;-15
2022/04/10 09:09:42;;;;;;;0.40;0.40;;;16.80;55.60;;;;;;4997888;28;20057;-15
2022/04/10 09:12:08;;;;;;;1.45;0.50;;;16.80;55.70;;;;;;4994204;28;20053;-15
2022/04/10 09:14:41;;;;;;;0.40;0.30;;;16.90;55.60;;;;;;4995087;28;20310;-14
2022/04/10 09:17:19;;;;;;;1.55;0.45;;;17.00;55.60;;;;;;4987235;28;20138;-15
2022/04/10 09:19:52;;;;;;;0.47;0.30;;;16.90;55.70;;;;;;4981960;28;20050;-14
2022/04/10 09:22:30;;;;;;;0.45;0.45;;;16.90;55.70;;;;;;4981616;28;20969;-15
2022/04/10 09:25:12;;;;;;;0.50;0.50;;;16.90;55.70;;;;;;4982272;28;20431;-16
2022/04/10 09:27:48;;;;;;;1.75;0.30;;;17.00;55.50;;;;;;4981059;28;20787;-16
2022/04/10 09:30:15;;;;;;;0.32;0.32;;;17.00;55.50;;;;;;4979357;28;20053;-15
2022/04/10 09:32:45;;;;;;;0.40;0.40;;;17.10;55.50;;;;;;4973151;28;20371;-14
2022/04/10 09:35:15;;;;;;;0.30;0.30;;;17.10;55.50;;;;;;4979251;28;20092;-16
2022/04/10 09:37:46;;;;;;;0.32;0.32;;;17.10;55.60;;;;;;4995161;28;20050;-15
2022/04/10 09:40:34;;;;;;;0.35;0.35;;;17.10;55.60;;;;;;4995651;28;20050;-14
2022/04/10 09:43:05;;;;;;;0.30;0.30;;;17.10;55.90;;;;;;4979397;28;20066;-17
2022/04/10 09:45:43;;;;;;;0.43;0.40;;;17.10;55.80;;;;;;4978614;28;20046;-14
2022/04/10 09:48:29;;;;;;;0.40;0.40;;;17.20;55.70;;;;;;4988481;28;20046;-14
2022/04/10 09:51:02;;;;;;;0.95;0.60;;;17.20;55.60;;;;;;4977512;28;20495;-15
2022/04/10 09:53:28;;;;;;;0.50;0.50;;;17.20;55.70;;;;;;4989210;28;20042;-14
2022/04/10 09:56:00;;;;;;;0.75;0.50;;;17.20;55.40;;;;;;4980313;28;20046;-15
2022/04/10 09:58:26;;;;;;;0.25;0.25;;;17.20;55.60;;;;;;5000227;28;20074;-15
2022/04/10 10:00:54;;;;;;;0.30;0.30;;;17.20;55.60;;;;;;4995452;28;20046;-14
2022/04/10 10:03:21;;;;;;;0.52;0.40;;;17.30;55.60;;;;;;4997770;28;20053;-14
2022/04/10 10:05:47;;;;;;;0.50;0.40;;;17.30;55.60;;;;;;5000004;28;20041;-16
2022/04/10 10:08:12;;;;;;;0.60;0.40;;;17.30;55.50;;;;;;5015854;28;20042;-15
2022/04/10 10:10:38;;;;;;;0.30;0.30;;;17.30;55.50;;;;;;4997469;28;20044;-14
2022/04/10 10:13:08;;;;;;;0.30;0.30;;;17.30;55.60;;;;;;4997597;28;20491;-14
2022/04/10 10:15:36;;;;;;;0.30;0.30;;;17.30;55.50;;;;;;4992242;28;20393;-14
2022/04/10 10:18:04;;;;;;;0.35;0.35;;;17.40;55.50;;;;;;4996097;28;20137;-14
2022/04/10 10:20:30;;;;;;;0.50;0.30;;;17.40;55.50;;;;;;4983870;28;20507;-13
2022/04/10 10:22:56;;;;;;;0.50;0.40;;;17.40;55.50;;;;;;4988338;28;20564;-13
2022/04/10 10:25:28;;;;;;;0.80;0.50;;;17.40;55.40;;;;;;4991448;28;20034;-13
2022/04/10 10:28:30;;;;;;;1.55;0.30;;;17.40;55.40;;;;;;4991416;28;20054;-13
2022/04/10 10:31:08;;;;;;;0.47;0.40;;;17.40;55.40;;;;;;4984195;28;20133;-14
2022/04/10 10:33:34;;;;;;;0.32;0.30;;;17.40;55.40;;;;;;4996118;28;20495;-14
2022/04/10 10:36:00;;;;;;;0.30;0.30;;;17.50;55.40;;;;;;4985367;28;20046;-13
2022/04/10 10:38:31;;;;;;;0.43;0.32;;;17.50;55.50;;;;;;4990551;28;20511;-13
2022/04/10 10:41:12;;;;;;;0.52;0.40;;;17.50;55.50;;;;;;4995786;28;20038;-14
2022/04/10 10:43:37;;;;;;;0.20;0.20;;;17.50;55.40;;;;;;4994817;28;20064;-13
2022/04/10 10:46:18;;;;;;;0.47;0.40;;;17.50;55.40;;;;;;4996556;28;20050;-13
2022/04/10 10:48:43;;;;;;;0.35;0.35;;;17.50;55.40;;;;;;4991127;28;20100;-14
2022/04/10 10:51:09;;;;;;;0.30;0.30;;;17.50;55.40;;;;;;4647616;28;10000085;-13
2022/04/10 10:53:55;;;;;;;1.55;0.30;;;17.50;55.40;;;;;;4990796;28;20281;-14
2022/04/10 10:56:22;;;;;;;0.22;0.22;;;17.50;55.40;;;;;;4986244;28;20046;-13
2022/04/10 10:58:48;;;;;;;0.30;0.30;;;17.50;55.40;;;;;;4986930;28;20065;-13
2022/04/10 11:01:20;;;;;;;0.30;0.30;;;17.50;55.40;;;;;;4983688;28;20069;-14
2022/04/10 11:04:02;;;;;;;0.50;0.30;;;17.50;55.30;;;;;;4988168;28;20129;-13
2022/04/10 11:06:47;;;;;;;0.38;0.30;;;17.50;55.20;;;;;;4982985;28;20066;-13
2022/04/10 11:09:23;;;;;;;0.32;0.32;;;17.50;55.30;;;;;;4994802;28;20068;-14
2022/04/10 11:11:49;;;;;;;0.30;0.30;;;17.50;56.00;;;;;;4977130;28;20042;-14
2022/04/10 11:14:34;;;;;;;0.20;0.20;;;17.60;55.40;;;;;;4995006;28;20456;-13
2022/04/10 11:17:19;;;;;;;0.32;0.22;;;17.60;56.00;;;;;;4993234;28;20491;-13
2022/04/10 11:19:46;;;;;;;0.25;0.25;;;17.60;55.30;;;;;;4987210;28;20049;-13
2022/04/10 11:22:25;;;;;;;0.30;0.30;;;17.60;55.30;;;;;;5048938;27;20435;-13
2022/04/10 11:24:54;;;;;;;0.32;0.20;;;17.60;55.20;;;;;;5016566;28;20057;-13
2022/04/10 11:27:43;;;;;;;0.32;0.22;;;17.60;55.20;;;;;;5011220;28;20338;-14
2022/04/10 11:30:09;;;;;;;0.95;0.20;;;17.60;55.30;;;;;;5008194;28;20076;-14
2022/04/10 11:32:45;;;;;;;0.20;0.20;;;17.60;55.30;;;;;;5009753;28;20141;-16
2022/04/10 11:35:22;;;;;;;0.75;0.40;;;17.60;55.30;;;;;;4996146;28;20045;-14
2022/04/10 11:37:50;;;;;;;0.22;0.22;;;17.60;55.30;;;;;;5004320;28;20601;-14
2022/04/10 11:40:20;;;;;;;0.22;0.22;;;17.60;55.30;;;;;;5008322;28;20062;-13
2022/04/10 11:42:45;;;;;;;0.20;0.10;;;17.70;55.30;;;;;;4996096;28;20097;-13
2022/04/10 11:45:11;;;;;;;0.10;0.10;;;17.60;55.30;;;;;;4998162;28;20050;-15
2022/04/10 11:47:39;;;;;;;0.20;0.20;;;17.60;55.30;;;;;;4999127;28;20487;-14
2022/04/10 11:50:06;;;;;;;0.70;0.30;;;17.60;55.30;;;;;;5008773;28;20515;-15
2022/04/10 11:52:32;;;;;;;0.10;0.10;;;17.60;55.20;;;;;;5029218;28;20050;-14
2022/04/10 11:54:57;;;;;;;1.20;0.10;;;17.60;55.20;;;;;;4996999;28;20042;-13
2022/04/10 11:57:23;;;;;;;0.20;0.20;;;17.60;55.20;;;;;;5008084;28;20046;-14
2022/04/10 11:59:49;;;;;;;0.40;0.20;;;17.70;55.30;;;;;;5008274;28;20069;-14
2022/04/10 12:02:15;;;;;;;0.30;0.30;;;17.60;55.20;;;;;;5004725;28;20106;-14
2022/04/10 12:04:41;;;;;;;0.30;0.20;;;17.70;55.30;;;;;;5006511;28;20130;-13
2022/04/10 12:07:17;;;;;;;0.85;0.28;;;17.60;55.20;;;;;;5007916;28;20050;-13
2022/04/10 12:09:43;;;;;;;0.40;0.20;;;17.60;55.20;;;;;;4997896;28;20045;-12
2022/04/10 12:12:09;;;;;;;0.25;0.25;;;17.70;55.20;;;;;;5001725;28;20046;-13
2022/04/10 12:14:35;;;;;;;0.20;0.20;;;17.70;55.20;;;;;;5001770;28;20048;-13
2022/04/10 12:17:00;;;;;;;0.20;0.17;;;17.70;55.20;;;;;;5005583;28;20050;-13
2022/04/10 12:19:30;;;;;;;0.20;0.10;;;17.70;55.20;;;;;;5008680;28;20065;-13
2022/04/10 12:21:56;;;;;;;0.35;0.35;;;17.70;54.50;;;;;;5006686;28;20058;-13
2022/04/10 12:24:21;;;;;;;2.50;0.38;;;17.70;53.90;;;;;;5020094;28;20091;-14
2022/04/10 12:26:49;;;;;;;0.20;0.17;;;17.60;54.60;;;;;;4988856;28;20081;-13
2022/04/10 12:29:14;;;;;;;0.20;0.20;;;17.60;54.10;;;;;;5026831;28;20066;-13
2022/04/10 12:31:41;;;;;;;0.30;0.30;;;17.70;53.70;;;;;;4996468;28;20527;-14
2022/04/10 12:34:09;;;;;;;0.35;0.30;;;17.70;53.70;;;;;;4992197;28;20050;-13
2022/04/10 12:36:49;;;;;;;0.25;0.20;;;17.70;53.50;;;;;;5000422;28;20046;-14
2022/04/10 12:39:28;;;;;;;2.05;0.40;;;17.70;53.60;;;;;;5007176;28;20056;-14
2022/04/10 12:42:10;;;;;;;0.25;0.25;;;17.60;53.80;;;;;;4993813;28;20152;-13
2022/04/10 12:44:37;;;;;;;0.88;0.35;;;17.60;54.00;;;;;;4992492;28;20060;-16
2022/04/10 12:47:07;;;;;;;0.45;0.40;;;17.70;54.10;;;;;;4989875;28;20496;-12
2022/04/10 12:49:33;;;;;;;0.63;0.20;;;17.60;54.40;;;;;;4995020;28;20046;-13
2022/04/10 12:52:03;;;;;;;0.88;0.40;;;17.70;54.40;;;;;;4987723;28;20038;-14